Time;durP1;ratioP1;P1;durP2;ratioP2;P2;SDS_P1;SDS_P2;PMS_P1;PMS_P2;Temp;Humidity;BMP_temperature;BMP_pressure;BME280_temperature;BME280_humidity;BME280_pressure;Samples;Min_cycle;Max_cycle;Signal;HPM_P1;HPM_P2
2021/08/04 00:01:34;;;;;;;5.18;4.30;;;15.00;99.90;;;;;;5072009;28;20319;-64
2021/08/04 00:04:02;;;;;;;7.15;4.22;;;15.10;99.90;;;;;;5072090;28;20619;-64
2021/08/04 00:06:35;;;;;;;4.80;4.20;;;15.20;99.90;;;;;;5071676;28;20184;-66
2021/08/04 00:09:05;;;;;;;5.70;4.40;;;15.20;99.90;;;;;;5071956;28;20208;-63
2021/08/04 00:11:33;;;;;;;5.05;4.05;;;15.20;99.90;;;;;;5072257;28;20291;-65
2021/08/04 00:14:01;;;;;;;4.63;4.15;;;15.30;99.90;;;;;;5071740;28;20201;-64
2021/08/04 00:16:30;;;;;;;5.22;4.15;;;15.30;99.90;;;;;;5071844;28;20205;-63
2021/08/04 00:18:58;;;;;;;5.32;4.65;;;15.30;99.90;;;;;;5071654;28;20213;-65
2021/08/04 00:21:26;;;;;;;5.90;4.57;;;15.40;99.90;;;;;;5071591;28;20323;-65
2021/08/04 00:23:54;;;;;;;5.35;4.25;;;15.40;99.90;;;;;;5071782;28;20219;-65
2021/08/04 00:26:24;;;;;;;4.95;4.32;;;15.50;99.90;;;;;;5071780;28;20240;-64
2021/08/04 00:28:51;;;;;;;6.78;4.35;;;15.60;99.90;;;;;;5071724;28;20284;-65
2021/08/04 00:31:19;;;;;;;4.70;4.10;;;15.60;99.90;;;;;;5071756;28;20303;-63
2021/08/04 00:33:47;;;;;;;4.72;4.10;;;15.70;99.90;;;;;;5071887;28;20207;-63
2021/08/04 00:36:15;;;;;;;5.80;4.10;;;15.70;99.90;;;;;;5071727;28;20627;-63
2021/08/04 00:38:43;;;;;;;9.65;4.13;;;15.80;99.90;;;;;;5071687;28;20215;-65
2021/08/04 00:41:11;;;;;;;9.07;4.00;;;15.80;99.90;;;;;;5071517;28;20259;-64
2021/08/04 00:43:40;;;;;;;4.20;3.72;;;15.80;99.90;;;;;;5071352;28;20224;-65
2021/08/04 00:46:11;;;;;;;4.15;3.75;;;15.90;99.90;;;;;;5071470;28;20205;-63
2021/08/04 00:48:39;;;;;;;6.78;4.00;;;15.90;99.90;;;;;;5071707;28;20284;-65
2021/08/04 00:51:06;;;;;;;5.53;3.80;;;15.90;99.90;;;;;;5075124;28;20855;-63
2021/08/04 00:53:35;;;;;;;6.05;4.07;;;16.00;99.90;;;;;;5075338;28;20201;-64
2021/08/04 00:56:08;;;;;;;4.30;3.88;;;16.00;99.90;;;;;;5075408;28;20287;-64
2021/08/04 00:58:37;;;;;;;4.25;3.80;;;16.00;99.90;;;;;;5075212;28;20273;-64
2021/08/04 01:01:12;;;;;;;4.90;3.55;;;16.00;99.90;;;;;;5075013;28;20236;-65
2021/08/04 01:03:44;;;;;;;5.95;3.78;;;16.00;99.90;;;;;;5075394;28;20203;-64
2021/08/04 01:06:15;;;;;;;5.47;3.88;;;15.90;99.90;;;;;;5075109;28;20184;-64
2021/08/04 01:08:51;;;;;;;5.75;3.35;;;15.90;99.90;;;;;;5074931;28;20626;-64
2021/08/04 01:11:20;;;;;;;5.13;3.50;;;15.90;99.90;;;;;;5074766;28;20207;-65
2021/08/04 01:13:51;;;;;;;4.97;3.40;;;15.90;99.90;;;;;;5074641;28;20674;-64
2021/08/04 01:16:25;;;;;;;5.90;3.95;;;15.90;99.90;;;;;;5074860;28;20195;-62
2021/08/04 01:18:58;;;;;;;3.92;3.45;;;15.90;99.90;;;;;;5075183;28;20282;-64
2021/08/04 01:21:36;;;;;;;7.95;3.88;;;15.90;99.90;;;;;;5074614;28;20569;-65
2021/08/04 01:24:10;;;;;;;6.53;3.67;;;16.00;99.90;;;;;;5074692;28;20846;-64
2021/08/04 01:26:41;;;;;;;4.57;3.75;;;16.00;99.90;;;;;;5075009;28;20411;-63
2021/08/04 01:29:11;;;;;;;3.78;3.25;;;16.10;99.90;;;;;;5074647;28;20207;-64
2021/08/04 01:31:41;;;;;;;4.60;3.25;;;16.00;99.90;;;;;;5074712;28;20297;-64
2021/08/04 01:34:10;;;;;;;6.38;3.90;;;16.00;99.90;;;;;;5074799;28;20208;-64
2021/08/04 01:36:39;;;;;;;7.45;4.00;;;16.10;99.90;;;;;;5074638;28;20201;-64
2021/08/04 01:39:08;;;;;;;4.80;3.90;;;16.00;99.90;;;;;;5074597;28;20229;-64
2021/08/04 01:41:38;;;;;;;4.10;3.60;;;16.00;99.90;;;;;;5074456;28;20568;-64
2021/08/04 01:44:08;;;;;;;4.35;3.95;;;15.90;99.90;;;;;;5074093;28;20232;-64
2021/08/04 01:46:38;;;;;;;5.95;4.00;;;16.00;99.90;;;;;;5074549;28;20189;-64
2021/08/04 01:49:06;;;;;;;5.18;4.05;;;16.00;99.90;;;;;;5074173;28;20724;-63
2021/08/04 01:51:34;;;;;;;6.65;4.22;;;15.90;99.90;;;;;;5074397;28;20200;-64
2021/08/04 01:54:04;;;;;;;5.72;3.90;;;15.90;99.90;;;;;;5074250;28;20291;-64
2021/08/04 01:56:31;;;;;;;5.22;3.67;;;15.90;99.90;;;;;;5074196;28;20201;-64
2021/08/04 01:58:59;;;;;;;5.50;4.22;;;15.90;99.90;;;;;;5073932;28;20215;-64
2021/08/04 02:01:28;;;;;;;5.00;4.25;;;15.90;99.90;;;;;;5073353;28;20300;-64
2021/08/04 02:03:56;;;;;;;5.57;3.92;;;15.90;99.90;;;;;;5074167;28;20572;-65
2021/08/04 02:06:36;;;;;;;5.45;3.58;;;16.00;99.90;;;;;;5074137;28;20287;-63
2021/08/04 02:09:08;;;;;;;5.03;3.90;;;16.00;99.90;;;;;;5074088;28;20279;-64
2021/08/04 02:11:46;;;;;;;5.75;4.95;;;16.00;99.90;;;;;;5073808;28;20685;-64
2021/08/04 02:14:20;;;;;;;5.93;4.35;;;15.90;99.90;;;;;;5073781;28;20185;-64
2021/08/04 02:17:00;;;;;;;7.82;4.63;;;15.80;99.90;;;;;;5073711;28;20189;-64
2021/08/04 02:19:30;;;;;;;6.43;4.90;;;15.90;99.90;;;;;;5073850;28;20219;-64
2021/08/04 02:22:03;;;;;;;5.85;4.30;;;15.80;99.90;;;;;;5073882;28;20219;-64
2021/08/04 02:24:34;;;;;;;7.68;4.60;;;15.80;99.90;;;;;;5073902;28;20185;-64
2021/08/04 02:27:04;;;;;;;5.03;4.57;;;15.80;99.90;;;;;;5073535;28;20181;-63
2021/08/04 02:29:35;;;;;;;7.82;5.07;;;15.70;99.90;;;;;;5073094;28;20577;-64
2021/08/04 02:32:05;;;;;;;5.45;4.60;;;15.70;99.90;;;;;;5073648;28;20181;-64
2021/08/04 02:34:33;;;;;;;6.10;4.80;;;15.70;99.90;;;;;;5073216;28;20823;-64
2021/08/04 02:37:02;;;;;;;5.40;4.60;;;15.70;99.90;;;;;;5073599;28;20196;-64
2021/08/04 02:39:30;;;;;;;6.63;5.47;;;15.70;99.90;;;;;;5073428;28;20256;-63
2021/08/04 02:41:59;;;;;;;6.72;4.90;;;15.70;99.90;;;;;;5073311;28;20222;-64
2021/08/04 02:44:27;;;;;;;5.75;4.70;;;15.70;99.90;;;;;;5072599;28;20767;-64
2021/08/04 02:46:55;;;;;;;5.30;4.80;;;15.70;99.90;;;;;;5073392;28;20205;-64
2021/08/04 02:49:25;;;;;;;5.93;5.32;;;15.70;99.90;;;;;;5073367;28;20218;-64
2021/08/04 02:51:53;;;;;;;9.00;5.53;;;15.70;99.90;;;;;;5073584;28;20193;-63
2021/08/04 02:54:21;;;;;;;7.55;5.50;;;15.70;99.90;;;;;;5073334;28;20196;-64
2021/08/04 02:56:48;;;;;;;6.18;5.57;;;15.70;99.90;;;;;;5072862;28;20205;-63
2021/08/04 02:59:16;;;;;;;5.55;4.95;;;15.70;99.90;;;;;;5072944;28;20209;-63
2021/08/04 03:01:44;;;;;;;6.20;5.30;;;15.70;99.90;;;;;;5073004;28;20786;-64
2021/08/04 03:04:12;;;;;;;9.20;5.75;;;15.60;99.90;;;;;;5072663;28;20204;-63
2021/08/04 03:06:41;;;;;;;7.18;5.60;;;15.70;99.90;;;;;;5073127;28;20204;-64
2021/08/04 03:09:09;;;;;;;6.45;5.72;;;15.70;99.90;;;;;;5073014;28;20238;-64
2021/08/04 03:11:37;;;;;;;6.22;5.40;;;15.70;99.90;;;;;;5072926;28;20200;-64
2021/08/04 03:14:05;;;;;;;7.90;6.18;;;15.70;99.90;;;;;;5071371;28;20300;-64
2021/08/04 03:16:33;;;;;;;8.43;5.25;;;15.70;99.90;;;;;;5072417;28;20719;-64
2021/08/04 03:19:01;;;;;;;7.25;5.70;;;15.70;99.90;;;;;;5072722;28;20205;-63
2021/08/04 03:21:29;;;;;;;5.80;5.20;;;15.70;99.90;;;;;;5072321;28;20296;-64
2021/08/04 03:23:58;;;;;;;8.13;5.20;;;15.70;99.90;;;;;;5072514;28;20228;-64
2021/08/04 03:26:26;;;;;;;6.10;5.50;;;15.70;99.90;;;;;;5072481;28;20205;-63
2021/08/04 03:28:54;;;;;;;6.30;5.30;;;15.60;99.90;;;;;;5072206;28;20657;-64
2021/08/04 03:31:22;;;;;;;7.13;5.22;;;15.60;99.90;;;;;;5072414;28;20203;-64
2021/08/04 03:33:50;;;;;;;8.10;5.68;;;15.70;99.90;;;;;;5072425;28;20192;-64
2021/08/04 03:36:18;;;;;;;7.53;5.47;;;15.70;99.90;;;;;;5071928;28;20675;-65
2021/08/04 03:38:46;;;;;;;6.57;5.07;;;15.70;99.90;;;;;;5072341;28;20197;-64
2021/08/04 03:41:15;;;;;;;6.65;4.95;;;15.60;99.90;;;;;;5072270;28;20200;-64
2021/08/04 03:43:43;;;;;;;10.23;5.88;;;15.60;99.90;;;;;;5071934;28;20319;-64
2021/08/04 03:46:10;;;;;;;6.32;5.63;;;15.60;99.90;;;;;;5071906;28;20634;-63
2021/08/04 03:48:39;;;;;;;7.03;5.45;;;15.60;99.90;;;;;;5071925;28;20211;-64
2021/08/04 03:51:07;;;;;;;8.98;5.32;;;15.60;99.90;;;;;;5071967;28;20659;-63
2021/08/04 03:53:34;;;;;;;6.45;5.72;;;15.60;99.90;;;;;;5072306;28;20299;-64
2021/08/04 03:56:02;;;;;;;6.55;5.70;;;15.60;99.90;;;;;;5072232;28;20311;-65
2021/08/04 03:58:31;;;;;;;8.32;5.10;;;15.60;99.90;;;;;;5072105;28;20207;-64
2021/08/04 04:00:59;;;;;;;8.52;5.50;;;15.70;99.90;;;;;;5074432;28;20648;-64
2021/08/04 04:03:27;;;;;;;8.30;5.82;;;15.70;99.90;;;;;;5075158;28;20225;-64
2021/08/04 04:05:56;;;;;;;5.53;5.03;;;15.70;99.90;;;;;;5075488;28;20209;-63
2021/08/04 04:08:24;;;;;;;7.10;5.00;;;15.70;99.90;;;;;;5071820;28;20204;-65
2021/08/04 04:10:52;;;;;;;8.40;5.72;;;15.70;99.90;;;;;;5071996;28;20200;-64
2021/08/04 04:13:20;;;;;;;7.63;6.22;;;15.70;99.90;;;;;;5071586;28;20747;-64
2021/08/04 04:15:49;;;;;;;9.57;6.80;;;15.70;99.90;;;;;;5071868;28;20600;-64
2021/08/04 04:18:17;;;;;;;9.88;6.65;;;15.70;99.90;;;;;;5071961;28;20633;-64
2021/08/04 04:20:45;;;;;;;6.22;5.47;;;15.70;99.90;;;;;;5071579;28;20636;-64
2021/08/04 04:23:12;;;;;;;8.25;6.20;;;15.70;99.90;;;;;;5071891;28;20267;-64
2021/08/04 04:25:40;;;;;;;6.90;5.47;;;15.70;99.90;;;;;;5075477;28;20322;-65
2021/08/04 04:28:08;;;;;;;6.15;5.13;;;15.70;99.90;;;;;;5075860;28;20295;-65
2021/08/04 04:30:36;;;;;;;10.30;6.55;;;15.70;99.90;;;;;;5075894;28;20303;-65
2021/08/04 04:33:05;;;;;;;8.25;6.93;;;15.70;99.90;;;;;;5076198;28;20204;-65
2021/08/04 04:35:33;;;;;;;9.77;5.90;;;15.70;99.90;;;;;;5076235;28;20543;-64
2021/08/04 04:38:01;;;;;;;8.05;6.30;;;15.70;99.90;;;;;;5076444;28;20196;-64
2021/08/04 04:40:29;;;;;;;7.95;5.65;;;15.70;99.90;;;;;;5076502;28;20295;-65
2021/08/04 04:42:56;;;;;;;7.47;5.43;;;15.70;99.90;;;;;;5076191;28;20249;-64
2021/08/04 04:45:24;;;;;;;7.18;5.30;;;15.70;99.90;;;;;;5075899;28;20228;-64
2021/08/04 04:47:52;;;;;;;9.40;5.75;;;15.70;99.90;;;;;;5076310;28;20297;-64
2021/08/04 04:50:21;;;;;;;10.25;5.90;;;15.80;99.90;;;;;;5075933;28;20205;-64
2021/08/04 04:52:49;;;;;;;8.75;5.60;;;15.80;99.90;;;;;;5076388;28;20202;-63
2021/08/04 04:55:17;;;;;;;9.07;5.53;;;15.90;99.90;;;;;;5076021;28;20291;-64
2021/08/04 04:57:45;;;;;;;8.70;6.53;;;16.00;99.90;;;;;;5075817;28;20201;-64
2021/08/04 05:00:13;;;;;;;9.13;5.18;;;16.10;99.90;;;;;;5075763;28;20232;-62
2021/08/04 05:02:42;;;;;;;6.93;5.35;;;16.20;99.90;;;;;;5075851;28;20201;-64
2021/08/04 05:05:15;;;;;;;9.77;5.80;;;16.40;99.90;;;;;;5075669;28;20634;-63
2021/08/04 05:07:44;;;;;;;6.22;4.60;;;16.50;99.90;;;;;;5075929;28;20299;-64
2021/08/04 05:10:13;;;;;;;7.18;5.22;;;16.60;99.90;;;;;;5075644;28;20205;-63
2021/08/04 05:12:41;;;;;;;6.25;5.13;;;16.70;99.90;;;;;;5075528;28;20296;-63
2021/08/04 05:15:10;;;;;;;5.78;4.88;;;16.80;99.90;;;;;;5075191;28;20251;-63
2021/08/04 05:17:40;;;;;;;5.35;4.50;;;16.90;99.90;;;;;;5075642;28;20235;-63
2021/08/04 05:20:10;;;;;;;9.43;5.30;;;17.00;99.90;;;;;;5075790;28;20287;-64
2021/08/04 05:22:42;;;;;;;9.98;4.80;;;17.10;99.90;;;;;;5075805;28;20185;-62
2021/08/04 05:25:12;;;;;;;4.93;4.47;;;17.20;99.90;;;;;;5075647;28;20224;-64
2021/08/04 05:27:40;;;;;;;7.43;5.18;;;17.30;99.90;;;;;;5075487;28;20223;-64
2021/08/04 05:30:09;;;;;;;4.90;4.32;;;17.30;99.90;;;;;;5075171;28;20657;-63
2021/08/04 05:32:37;;;;;;;6.65;4.78;;;17.30;99.90;;;;;;5075740;28;20200;-63
2021/08/04 05:35:06;;;;;;;6.53;5.47;;;17.40;99.90;;;;;;5074606;28;20794;-64
2021/08/04 05:37:34;;;;;;;5.50;4.13;;;17.40;99.90;;;;;;5074476;28;20207;-64
2021/08/04 05:40:02;;;;;;;6.97;5.18;;;17.40;99.90;;;;;;5075396;28;20283;-63
2021/08/04 05:42:31;;;;;;;6.43;5.43;;;17.50;99.90;;;;;;5075472;28;20296;-64
2021/08/04 05:44:59;;;;;;;6.63;4.50;;;17.50;99.90;;;;;;5074392;28;20333;-63
2021/08/04 05:47:26;;;;;;;7.07;4.80;;;17.60;99.90;;;;;;5075451;28;20208;-64
2021/08/04 05:49:54;;;;;;;5.60;5.07;;;17.60;99.90;;;;;;5075186;28;20204;-65
2021/08/04 05:52:22;;;;;;;5.75;5.22;;;17.70;99.90;;;;;;5075038;28;20295;-65
2021/08/04 05:54:51;;;;;;;7.32;6.07;;;17.70;99.90;;;;;;5075099;28;20588;-63
2021/08/04 05:57:18;;;;;;;7.55;5.72;;;17.80;99.90;;;;;;5074787;28;20204;-64
2021/08/04 05:59:48;;;;;;;6.28;5.68;;;17.90;99.90;;;;;;5074676;28;20296;-63
2021/08/04 06:02:16;;;;;;;7.00;5.80;;;17.90;99.90;;;;;;5074868;28;20300;-64
2021/08/04 06:04:44;;;;;;;8.10;6.07;;;18.00;99.90;;;;;;5074674;28;20228;-63
2021/08/04 06:07:12;;;;;;;9.27;5.78;;;18.10;99.90;;;;;;5074561;28;20201;-64
2021/08/04 06:09:40;;;;;;;7.65;5.55;;;18.10;99.90;;;;;;5074699;28;20207;-63
2021/08/04 06:12:09;;;;;;;7.25;6.07;;;18.10;99.90;;;;;;5074402;28;20551;-63
2021/08/04 06:14:37;;;;;;;6.97;5.47;;;18.00;99.90;;;;;;5074132;28;20662;-63
2021/08/04 06:17:06;;;;;;;7.47;5.75;;;18.00;99.90;;;;;;5074508;28;20208;-64
2021/08/04 06:19:34;;;;;;;5.95;5.35;;;18.00;99.90;;;;;;5074482;28;20568;-64
2021/08/04 06:22:02;;;;;;;7.45;5.35;;;18.10;99.90;;;;;;5074160;28;20200;-63
2021/08/04 06:24:30;;;;;;;7.45;5.65;;;18.10;99.90;;;;;;5074253;28;20251;-63
2021/08/04 06:26:58;;;;;;;7.32;5.97;;;18.10;99.90;;;;;;5074334;28;20295;-63
2021/08/04 06:29:26;;;;;;;5.40;4.90;;;18.20;99.90;;;;;;5073996;28;20201;-64
2021/08/04 06:31:54;;;;;;;5.53;4.60;;;18.20;99.90;;;;;;5074234;28;20404;-64
2021/08/04 06:34:23;;;;;;;5.15;4.40;;;18.30;99.90;;;;;;5074455;28;20291;-63
2021/08/04 06:36:51;;;;;;;6.20;5.40;;;18.30;99.90;;;;;;5073815;28;20644;-64
2021/08/04 06:39:19;;;;;;;5.38;4.28;;;18.30;99.90;;;;;;5073861;28;20208;-63
2021/08/04 06:42:03;;;;;;;5.88;5.03;;;18.30;99.90;;;;;;5073785;28;20656;-65
2021/08/04 06:44:30;;;;;;;5.45;4.95;;;18.30;99.90;;;;;;5073521;28;20260;-61
2021/08/04 06:46:59;;;;;;;5.60;4.85;;;18.30;99.90;;;;;;5073626;28;20683;-64
2021/08/04 06:49:28;;;;;;;5.72;5.18;;;18.20;99.90;;;;;;5073747;28;20200;-62
2021/08/04 06:51:56;;;;;;;7.50;5.65;;;18.20;99.90;;;;;;5073637;28;20668;-64
2021/08/04 06:54:25;;;;;;;7.40;5.97;;;18.20;99.90;;;;;;5073859;28;20522;-63
2021/08/04 06:56:53;;;;;;;6.20;5.15;;;18.20;99.90;;;;;;5073927;28;20300;-63
2021/08/04 06:59:21;;;;;;;8.45;5.40;;;18.20;99.90;;;;;;5073456;28;20205;-63
2021/08/04 07:01:48;;;;;;;6.70;5.15;;;18.30;99.90;;;;;;5073748;28;20310;-63
2021/08/04 07:04:17;;;;;;;6.25;5.60;;;18.40;99.90;;;;;;5073505;28;20220;-63
2021/08/04 07:06:53;;;;;;;8.23;5.25;;;18.60;99.90;;;;;;5073627;28;20215;-63
2021/08/04 07:09:21;;;;;;;6.22;5.57;;;18.90;99.90;;;;;;5073484;28;20632;-63
2021/08/04 07:11:49;;;;;;;7.70;5.13;;;19.10;99.90;;;;;;5073263;28;20289;-65
2021/08/04 07:14:17;;;;;;;7.05;5.70;;;19.20;99.90;;;;;;5072784;28;20639;-65
2021/08/04 07:16:45;;;;;;;6.20;5.70;;;19.30;99.90;;;;;;5073320;28;20208;-64
2021/08/04 07:19:13;;;;;;;7.95;5.50;;;19.30;99.90;;;;;;5073322;28;20200;-65
2021/08/04 07:21:42;;;;;;;6.43;4.93;;;19.40;99.90;;;;;;5073327;28;20196;-65
2021/08/04 07:24:12;;;;;;;6.10;5.50;;;19.40;99.90;;;;;;5073149;28;20255;-64
2021/08/04 07:26:42;;;;;;;7.28;5.85;;;19.50;99.90;;;;;;5073462;28;20287;-64
2021/08/04 07:29:11;;;;;;;7.65;5.30;;;19.60;99.90;;;;;;5072614;28;20271;-63
2021/08/04 07:31:40;;;;;;;6.25;5.25;;;19.80;99.90;;;;;;5072809;28;20294;-65
2021/08/04 07:34:09;;;;;;;6.00;5.13;;;19.70;99.90;;;;;;5072997;28;20204;-63
2021/08/04 07:36:37;;;;;;;5.35;4.85;;;19.60;99.90;;;;;;5072716;28;20745;-64
2021/08/04 07:39:04;;;;;;;6.07;4.97;;;19.60;99.90;;;;;;5073048;28;20279;-63
2021/08/04 07:41:34;;;;;;;5.97;4.25;;;19.70;99.90;;;;;;5073038;28;20206;-62
2021/08/04 07:44:01;;;;;;;5.88;5.00;;;19.80;99.90;;;;;;5072151;28;20228;-63
2021/08/04 07:46:39;;;;;;;6.03;5.38;;;19.80;99.90;;;;;;5072615;28;20632;-64
2021/08/04 07:49:07;;;;;;;7.13;4.97;;;19.70;99.90;;;;;;5072403;28;20200;-64
2021/08/04 07:51:35;;;;;;;6.00;4.72;;;19.60;99.90;;;;;;5072320;28;20213;-65
2021/08/04 07:54:03;;;;;;;5.72;3.72;;;19.60;99.90;;;;;;5071991;28;20843;-63
2021/08/04 07:56:31;;;;;;;4.82;3.92;;;19.60;99.90;;;;;;5072002;28;20664;-64
2021/08/04 07:59:02;;;;;;;4.28;3.58;;;19.60;99.90;;;;;;5071262;28;20288;-63
2021/08/04 08:01:30;;;;;;;5.50;3.15;;;19.60;99.90;;;;;;5072279;28;20191;-64
2021/08/04 08:03:58;;;;;;;4.15;3.38;;;19.60;99.90;;;;;;5072629;28;20235;-64
2021/08/04 08:06:26;;;;;;;3.10;2.90;;;19.50;99.90;;;;;;5072100;28;20220;-63
2021/08/04 08:08:54;;;;;;;4.43;2.60;;;19.50;99.90;;;;;;5071748;28;20295;-64
2021/08/04 08:11:22;;;;;;;2.90;2.65;;;19.60;99.90;;;;;;5071758;28;20240;-63
2021/08/04 08:13:50;;;;;;;3.75;2.65;;;19.60;99.90;;;;;;5071567;28;20203;-63
2021/08/04 08:16:19;;;;;;;2.88;2.60;;;19.60;99.90;;;;;;5071833;28;20197;-63
2021/08/04 08:18:47;;;;;;;3.75;2.17;;;19.60;99.90;;;;;;5071460;28;20542;-64
2021/08/04 08:21:15;;;;;;;1.80;1.70;;;19.70;99.90;;;;;;5071732;28;20214;-64
2021/08/04 08:23:43;;;;;;;2.55;1.75;;;19.70;99.90;;;;;;5072042;28;20205;-63
2021/08/04 08:26:10;;;;;;;3.38;1.70;;;19.80;99.90;;;;;;5071884;28;20219;-63
2021/08/04 08:28:38;;;;;;;2.63;2.08;;;19.70;99.90;;;;;;5071713;28;20197;-63
2021/08/04 08:31:07;;;;;;;5.20;2.17;;;19.80;99.90;;;;;;5071648;28;20201;-63
2021/08/04 08:33:36;;;;;;;2.10;1.90;;;19.80;99.90;;;;;;5071465;28;20213;-64
2021/08/04 08:36:04;;;;;;;2.40;2.20;;;19.90;99.90;;;;;;5071671;28;20200;-63
2021/08/04 08:38:32;;;;;;;3.03;2.55;;;19.80;99.90;;;;;;5071763;28;20202;-63
2021/08/04 08:41:01;;;;;;;4.25;3.90;;;19.90;99.90;;;;;;5071702;28;20285;-63
2021/08/04 08:43:29;;;;;;;4.32;3.92;;;20.10;99.90;;;;;;5070927;28;20215;-64
2021/08/04 08:45:57;;;;;;;3.42;3.13;;;20.30;99.90;;;;;;5071562;28;20212;-64
2021/08/04 08:48:26;;;;;;;3.35;2.97;;;20.40;99.90;;;;;;5071692;28;20201;-64
2021/08/04 08:50:56;;;;;;;3.00;2.80;;;20.50;99.90;;;;;;5071682;28;20563;-64
2021/08/04 08:53:23;;;;;;;2.90;2.70;;;20.60;99.90;;;;;;5071641;28;20288;-63
2021/08/04 08:55:52;;;;;;;2.20;2.10;;;20.70;99.90;;;;;;5072238;28;20192;-64
2021/08/04 08:58:21;;;;;;;2.20;2.00;;;20.80;99.90;;;;;;5072276;28;20211;-63
2021/08/04 09:00:49;;;;;;;2.10;1.88;;;20.80;99.90;;;;;;5072422;28;20288;-63
2021/08/04 09:03:19;;;;;;;2.70;2.50;;;20.90;99.90;;;;;;5072078;28;20205;-65
2021/08/04 09:05:48;;;;;;;2.25;2.13;;;21.10;99.90;;;;;;5071322;28;20216;-64
2021/08/04 09:08:25;;;;;;;2.60;2.40;;;21.10;99.90;;;;;;5071279;28;20208;-62
2021/08/04 09:10:53;;;;;;;2.45;2.28;;;21.20;99.90;;;;;;5067653;28;20192;-63
2021/08/04 09:13:31;;;;;;;2.33;1.92;;;21.40;99.90;;;;;;5074684;28;20648;-62
2021/08/04 09:16:04;;;;;;;2.10;2.00;;;21.40;99.90;;;;;;5074932;28;20192;-64
2021/08/04 09:18:39;;;;;;;2.20;2.00;;;21.30;99.90;;;;;;5074750;28;20184;-64
2021/08/04 09:21:07;;;;;;;3.35;2.22;;;21.40;99.90;;;;;;5075108;28;20188;-64
2021/08/04 09:23:43;;;;;;;2.40;2.20;;;21.50;99.90;;;;;;5074639;28;20200;-64
2021/08/04 09:26:12;;;;;;;2.72;2.35;;;21.60;99.90;;;;;;5074701;28;20200;-64
2021/08/04 09:28:54;;;;;;;2.85;2.53;;;21.50;99.90;;;;;;5074793;28;20201;-64
2021/08/04 09:31:23;;;;;;;2.72;2.50;;;21.40;99.90;;;;;;5074670;28;20663;-64
2021/08/04 09:33:51;;;;;;;2.85;2.05;;;21.40;99.90;;;;;;5061082;28;20207;-64
2021/08/04 09:36:27;;;;;;;2.90;1.80;;;21.50;99.90;;;;;;5074438;28;20211;-65
2021/08/04 09:39:04;;;;;;;2.80;2.00;;;21.60;99.90;;;;;;5074686;28;20596;-63
2021/08/04 09:41:32;;;;;;;2.53;1.90;;;21.80;99.90;;;;;;5074069;28;20804;-63
2021/08/04 09:44:05;;;;;;;2.10;1.92;;;21.90;99.90;;;;;;5053722;28;20616;-64
2021/08/04 09:46:33;;;;;;;1.83;1.73;;;22.00;99.90;;;;;;5054481;28;20338;-64
2021/08/04 09:49:11;;;;;;;3.78;2.13;;;22.00;99.90;;;;;;5054043;28;20237;-66
2021/08/04 09:51:39;;;;;;;2.22;2.00;;;21.90;99.90;;;;;;5067272;28;20200;-64
2021/08/04 09:54:10;;;;;;;2.28;2.17;;;21.80;99.90;;;;;;5074240;28;20773;-65
2021/08/04 09:56:48;;;;;;;2.85;2.00;;;21.90;99.90;;;;;;5074100;28;20225;-64
2021/08/04 09:59:16;;;;;;;2.65;2.10;;;21.80;99.90;;;;;;5073957;28;20637;-64
2021/08/04 10:01:44;;;;;;;2.88;1.70;;;22.00;99.90;;;;;;5074320;28;20203;-64
2021/08/04 10:04:14;;;;;;;1.60;1.50;;;22.00;99.90;;;;;;5073959;28;20588;-64
2021/08/04 10:06:44;;;;;;;1.90;1.77;;;21.90;99.90;;;;;;5073885;28;20223;-63
2021/08/04 10:09:15;;;;;;;2.55;1.98;;;21.80;99.90;;;;;;5073745;28;20785;-64
2021/08/04 10:11:45;;;;;;;2.10;2.00;;;22.00;99.90;;;;;;5073934;28;20197;-65
2021/08/04 10:14:15;;;;;;;2.30;2.10;;;22.00;99.90;;;;;;5073409;28;20833;-65
2021/08/04 10:16:44;;;;;;;1.90;1.80;;;22.00;99.90;;;;;;5073757;28;20669;-65
2021/08/04 10:19:13;;;;;;;1.80;1.70;;;22.00;99.90;;;;;;5073586;28;20661;-64
2021/08/04 10:21:42;;;;;;;1.88;1.70;;;22.10;99.90;;;;;;5073317;28;20200;-64
2021/08/04 10:24:14;;;;;;;1.90;1.80;;;22.10;99.90;;;;;;5073745;28;20291;-65
2021/08/04 10:26:42;;;;;;;1.10;1.00;;;22.30;99.90;;;;;;5073361;28;20952;-64
2021/08/04 10:29:11;;;;;;;1.30;1.20;;;22.30;99.90;;;;;;5073275;28;20653;-64
2021/08/04 10:31:41;;;;;;;1.52;1.42;;;22.40;99.90;;;;;;5073359;28;20258;-64
2021/08/04 10:34:24;;;;;;;2.42;1.85;;;22.60;99.90;;;;;;5073730;28;20189;-64
2021/08/04 10:36:55;;;;;;;1.90;1.80;;;22.90;99.90;;;;;;5073441;28;20177;-63
2021/08/04 10:39:26;;;;;;;1.67;1.58;;;22.90;99.90;;;;;;5073534;28;20181;-64
2021/08/04 10:42:01;;;;;;;2.78;1.80;;;23.10;99.90;;;;;;5073395;28;20192;-63
2021/08/04 10:44:30;;;;;;;1.90;1.80;;;23.20;99.90;;;;;;5072926;28;20230;-64
2021/08/04 10:46:59;;;;;;;1.73;1.60;;;23.40;99.90;;;;;;5073230;28;20224;-64
2021/08/04 10:49:30;;;;;;;1.65;1.52;;;23.80;99.90;;;;;;5073030;28;20542;-64
2021/08/04 10:52:15;;;;;;;1.80;1.70;;;24.10;99.90;;;;;;5073444;28;20189;-64
2021/08/04 10:55:07;;;;;;;1.50;1.40;;;24.30;99.90;;;;;;5073156;28;20636;-64
2021/08/04 10:57:50;;;;;;;1.85;1.75;;;24.60;99.90;;;;;;5072921;28;20525;-67
2021/08/04 11:00:22;;;;;;;2.00;1.80;;;24.40;99.90;;;;;;5073086;28;20177;-63
2021/08/04 11:02:50;;;;;;;2.05;1.90;;;24.50;99.90;;;;;;5073243;28;20201;-65
2021/08/04 11:05:18;;;;;;;1.88;1.77;;;24.30;99.90;;;;;;5072748;28;20295;-64
2021/08/04 11:08:16;;;;;;;1.75;1.65;;;24.30;99.90;;;;;;5073052;28;20216;-64
2021/08/04 11:10:46;;;;;;;1.85;1.75;;;24.10;99.90;;;;;;5072997;28;20291;-64
2021/08/04 11:13:55;;;;;;;1.77;1.67;;;24.00;99.90;;;;;;5072914;28;20587;-64
2021/08/04 11:16:28;;;;;;;1.85;1.75;;;23.90;99.90;;;;;;5072884;28;20173;-63
2021/08/04 11:19:06;;;;;;;2.90;1.83;;;23.90;99.90;;;;;;5072575;28;20768;-64
2021/08/04 11:21:34;;;;;;;2.00;1.90;;;23.90;99.90;;;;;;5072629;28;20653;-64
2021/08/04 11:24:03;;;;;;;1.95;1.73;;;23.90;99.90;;;;;;5072433;28;20601;-64
2021/08/04 11:26:37;;;;;;;2.65;1.83;;;24.00;99.90;;;;;;5072536;28;20219;-64
2021/08/04 11:29:05;;;;;;;2.30;1.60;;;24.20;99.90;;;;;;5072118;28;20629;-63
2021/08/04 11:31:34;;;;;;;2.55;1.92;;;24.20;99.90;;;;;;5072443;28;20270;-63
2021/08/04 11:34:26;;;;;;;2.20;2.10;;;24.30;99.90;;;;;;5071253;28;20660;-64
2021/08/04 11:36:59;;;;;;;2.03;1.83;;;24.40;99.90;;;;;;5072296;28;20275;-63
2021/08/04 11:39:27;;;;;;;2.13;1.90;;;24.40;99.90;;;;;;5072657;28;20188;-64
2021/08/04 11:41:57;;;;;;;1.90;1.80;;;24.40;99.90;;;;;;5072348;28;20287;-64
2021/08/04 11:44:27;;;;;;;3.05;2.22;;;24.50;99.90;;;;;;5071875;28;20232;-63
2021/08/04 11:47:00;;;;;;;2.30;2.10;;;24.40;99.90;;;;;;5072151;28;20641;-63
2021/08/04 11:49:31;;;;;;;2.08;1.98;;;24.30;99.90;;;;;;5072112;28;20208;-63
2021/08/04 11:52:04;;;;;;;2.60;2.40;;;24.20;99.90;;;;;;5072501;28;20189;-64
2021/08/04 11:54:44;;;;;;;2.42;2.30;;;24.00;99.90;;;;;;5072474;28;20185;-63
2021/08/04 11:57:26;;;;;;;2.90;2.70;;;24.10;99.90;;;;;;5072361;28;20590;-63
2021/08/04 11:59:56;;;;;;;3.15;2.95;;;23.80;99.90;;;;;;5072026;28;20286;-64
2021/08/04 12:02:25;;;;;;;4.53;3.17;;;23.70;99.90;;;;;;5072204;28;20276;-64
2021/08/04 12:04:54;;;;;;;3.40;3.20;;;23.60;99.90;;;;;;5072177;28;20296;-64
2021/08/04 12:07:26;;;;;;;2.88;2.67;;;23.50;99.90;;;;;;5056640;28;20677;-64
2021/08/04 12:09:54;;;;;;;2.20;2.05;;;23.40;99.90;;;;;;5061664;28;20196;-63
2021/08/04 12:12:27;;;;;;;2.60;2.40;;;23.30;99.90;;;;;;5072160;28;20200;-64
2021/08/04 12:14:55;;;;;;;2.35;2.10;;;23.20;99.90;;;;;;5072597;28;20185;-64
2021/08/04 12:17:31;;;;;;;1.90;1.80;;;23.30;99.90;;;;;;5072548;28;20196;-63
2021/08/04 12:20:09;;;;;;;1.77;1.67;;;23.40;99.90;;;;;;5072312;28;20279;-63
2021/08/04 12:22:37;;;;;;;2.40;2.30;;;23.50;99.90;;;;;;5072360;28;20185;-63
2021/08/04 12:25:07;;;;;;;2.72;2.58;;;23.70;99.90;;;;;;5072307;28;20287;-66
2021/08/04 12:27:39;;;;;;;3.97;2.85;;;24.00;99.90;;;;;;5072172;28;20223;-63
2021/08/04 12:30:31;;;;;;;2.63;2.40;;;24.20;99.90;;;;;;5072481;28;20188;-63
2021/08/04 12:33:03;;;;;;;2.35;2.25;;;24.60;99.90;;;;;;5068892;28;20197;-63
2021/08/04 12:35:39;;;;;;;2.78;2.30;;;24.90;99.90;;;;;;5072421;28;20213;-64
2021/08/04 12:38:09;;;;;;;2.50;2.40;;;25.20;99.90;;;;;;5067942;28;20630;-63
2021/08/04 12:40:38;;;;;;;2.60;2.40;;;25.30;99.90;;;;;;5052193;28;20284;-64
2021/08/04 12:43:12;;;;;;;2.40;2.20;;;25.40;99.90;;;;;;5061405;28;20288;-64
2021/08/04 12:45:48;;;;;;;2.17;1.98;;;25.40;99.90;;;;;;5073576;28;20286;-63
2021/08/04 12:48:18;;;;;;;2.70;1.70;;;25.40;99.90;;;;;;5076091;28;20247;-63
2021/08/04 12:50:53;;;;;;;2.65;1.92;;;25.30;99.90;;;;;;5076129;28;20292;-63
2021/08/04 12:53:26;;;;;;;5.35;2.30;;;25.00;99.90;;;;;;5075891;28;20653;-64
2021/08/04 12:56:02;;;;;;;2.22;2.10;;;24.70;99.90;;;;;;5075902;28;20276;-64
2021/08/04 12:58:56;;;;;;;2.40;2.20;;;24.40;99.90;;;;;;5075948;28;20203;-63
2021/08/04 13:01:25;;;;;;;3.13;2.92;;;24.30;99.90;;;;;;5075916;28;20195;-66